Flight Track Log - Related Links

Times and Time Zones

All times are in EDT time to prevent confusion due to time zone crossing. See the THY9 flight status page for this flight to view local times or setup timezone preferences in your user account.

Time Position Orientation Groundspeed Altitude Reporting Facility
EDT Latitude Longitude Course Direction KTS MPH feet Rate Location/Type
Fri 06:09:42 AM 41.1430 28.7970 233° Southwest 263 303 4,900  Level FlightAware ADS-B
Fri 06:10:12 AM 41.1780 28.7670 327° Northwest 275 316 6,400 2,509 Climbing FlightAware ADS-B
Fri 06:10:37 AM 41.2020 28.7450 325° Northwest 280 322 7,200 2,400 Climbing FlightAware ADS-B
Fri 06:11:02 AM 41.2290 28.7180 323° Northwest 282 325 8,400 2,760 Climbing FlightAware ADS-B
Fri 06:11:27 AM 41.2550 28.6940 325° Northwest 292 336 9,500 2,000 Climbing FlightAware ADS-B
Fri 06:12:17 AM 41.3160 28.6360 324° Northwest 324 373 10,900 1,341 Climbing FlightAware ADS-B
Fri 06:12:52 AM 41.3630 28.5930 326° Northwest 361 415 11,400 1,624 Climbing FlightAware ADS-B
Fri 06:13:42 AM 41.4320 28.5270 324° Northwest 378 435 13,200 2,259 Climbing FlightAware ADS-B
Fri 06:14:17 AM 41.4830 28.4790 325° Northwest 384 442 14,600 2,400 Climbing FlightAware ADS-B
Fri 06:15:17 AM 41.5750 28.3920 325° Northwest 400 460 17,000 2,296 Climbing FlightAware ADS-B
Fri 06:16:12 AM 41.6610 28.3100 325° Northwest 404 465 19,000 1,629 Climbing FlightAware ADS-B
Fri 06:17:37 AM 41.7870 28.1890 324° Northwest 420 483 20,800 1,625 Climbing FlightAware ADS-B
Fri 06:20:00 AM 42.0655 27.9989 333° Northwest  Level FlightAware Approximate
Fri 06:20:12 AM 42.0410 27.9510 333° Northwest 445 512 25,500  Level FlightAware ADS-B
Fri 06:20:47 AM 42.1000 27.9030 329° Northwest 445 512 25,500 1,200 Level FlightAware ADS-B
Fri 06:22:32 AM 42.3180 27.7920 339° North 468 539 28,300 1,440 Climbing FlightAware ADS-B
Fri 06:23:17 AM 42.4010 27.7490 339° North 473 544 29,100 1,020 Climbing FlightAware ADS-B
Fri 06:24:12 AM 42.5210 27.6840 338° Northwest 475 547 30,000 568 Climbing FlightAware ADS-B
Fri 06:24:52 AM 42.6040 27.6390 338° Northwest 469 540 30,000  Level FlightAware ADS-B
Fri 06:25:27 AM 42.6740 27.6020 339° North 469 540 30,000  Level FlightAware ADS-B
Fri 06:26:17 AM 42.7640 27.5530 338° Northwest 468 539 30,000  Level FlightAware ADS-B
Fri 06:27:02 AM 42.8660 27.4980 338° Northwest 468 539 30,000  Level FlightAware ADS-B
Fri 06:27:37 AM 42.9390 27.4580 338° Northwest 468 539 30,000  Level FlightAware ADS-B
Fri 06:28:17 AM 43.0190 27.4150 339° North 468 539 30,000  Level FlightAware ADS-B
Fri 06:29:22 AM 43.1380 27.3510 339° North 468 539 30,000  Level FlightAware ADS-B
Fri 06:30:17 AM 43.2580 27.2850 338° Northwest 467 537 30,000  Level FlightAware ADS-B
Fri 06:30:57 AM 43.3390 27.2400 338° Northwest 466 536 30,000  Level FlightAware ADS-B
Fri 06:31:37 AM 43.4200 27.1960 338° Northwest 466 536 30,000  Level FlightAware ADS-B
Fri 06:32:22 AM 43.5090 27.1470 338° Northwest 467 537 30,000  Level FlightAware ADS-B
Fri 06:33:17 AM 43.6150 27.0880 338° Northwest 468 539 30,000  Level FlightAware ADS-B
Fri 06:34:02 AM 43.7080 27.0360 338° Northwest 468 539 30,000  Level FlightAware ADS-B
Fri 06:34:42 AM 43.7860 26.9930 338° Northwest 468 539 30,000  Level FlightAware ADS-B
Fri 06:35:27 AM 43.8760 26.9420 338° Northwest 468 539 30,000  Level FlightAware ADS-B
Fri 06:36:07 AM 43.9600 26.8960 338° Northwest 467 537 30,000  Level FlightAware ADS-B
Fri 06:36:47 AM 44.0350 26.8520 337° Northwest 466 536 30,000  Level FlightAware ADS-B
Fri 06:37:32 AM 44.1190 26.7800 328° Northwest 465 535 30,000  Level FlightAware ADS-B
Fri 06:38:07 AM 44.1830 26.7100 322° Northwest 464 534 30,000  Level FlightAware ADS-B
Fri 06:38:47 AM 44.2470 26.6400 322° Northwest 464 534 30,000  Level FlightAware ADS-B
Fri 06:39:37 AM 44.3280 26.5510 322° Northwest 463 533 30,000  Level FlightAware ADS-B
Fri 06:40:17 AM 44.3990 26.4740 322° Northwest 463 533 30,000  Level FlightAware ADS-B
Fri 06:41:02 AM 44.4670 26.3980 321° Northwest 463 533 30,000  Level FlightAware ADS-B
Fri 06:41:37 AM 44.5310 26.3280 322° Northwest 462 532 30,000  Level FlightAware ADS-B
Fri 06:42:27 AM 44.6110 26.2390 322° Northwest 463 533 30,000  Level FlightAware ADS-B
Fri 06:43:02 AM 44.6820 26.1600 322° Northwest 458 527 30,000  Level FlightAware ADS-B
Fri 06:43:47 AM 44.7570 26.0770 322° Northwest 459 528 30,000  Level FlightAware ADS-B
Fri 06:44:32 AM 44.8340 25.9910 322° Northwest 459 528 30,000  Level FlightAware ADS-B
Fri 06:45:12 AM 44.9010 25.9150 321° Northwest 459 528 30,000  Level FlightAware ADS-B
Fri 06:45:57 AM 44.9770 25.8300 322° Northwest 459 528 30,000  Level FlightAware ADS-B
Fri 06:46:37 AM 45.0430 25.7550 321° Northwest 460 529 30,000  Level FlightAware ADS-B
Fri 06:47:17 AM 45.1110 25.6780 321° Northwest 461 531 30,000  Level FlightAware ADS-B
Fri 06:48:02 AM 45.1850 25.5950 322° Northwest 461 531 30,000  Level FlightAware ADS-B
Fri 06:48:47 AM 45.2640 25.5050 321° Northwest 463 533 30,000  Level FlightAware ADS-B
Fri 06:49:27 AM 45.3320 25.4280 321° Northwest 470 541 30,000  Level FlightAware ADS-B
Fri 06:50:12 AM 45.4090 25.3400 321° Northwest 471 542 30,000  Level FlightAware ADS-B
Fri 06:50:52 AM 45.4760 25.2630 321° Northwest 472 543 30,000  Level FlightAware ADS-B
Fri 06:51:32 AM 45.5440 25.1840 321° Northwest 465 535 30,000  Level FlightAware ADS-B
Fri 06:52:17 AM 45.6200 25.0970 321° Northwest 463 533 30,000  Level FlightAware ADS-B
Fri 06:52:57 AM 45.6870 25.0180 321° Northwest 464 534 30,000  Level FlightAware ADS-B
Fri 06:53:42 AM 45.7630 24.9310 321° Northwest 464 534 30,000  Level FlightAware ADS-B
Fri 06:54:22 AM 45.8300 24.8530 321° Northwest 463 533 30,000  Level FlightAware ADS-B
Fri 06:55:02 AM 45.8970 24.7740 321° Northwest 463 533 30,000  Level FlightAware ADS-B
Fri 06:55:47 AM 45.9730 24.6850 321° Northwest 462 532 30,000  Level FlightAware ADS-B
Fri 06:56:27 AM 46.0390 24.6070 321° Northwest 460 529 30,000  Level FlightAware ADS-B
Fri 06:57:12 AM 46.1150 24.5180 321° Northwest 459 528 30,000  Level FlightAware ADS-B
Fri 06:57:52 AM 46.1810 24.4380 320° Northwest 459 528 30,000  Level FlightAware ADS-B
Fri 06:58:32 AM 46.2470 24.3600 321° Northwest 460 529 30,000  Level FlightAware ADS-B
Fri 06:59:17 AM 46.3210 24.2720 321° Northwest 461 531 30,000  Level FlightAware ADS-B
Fri 06:59:57 AM 46.3890 24.1910 321° Northwest 461 531 30,000  Level FlightAware ADS-B
Fri 07:00:37 AM 46.4540 24.1130 320° Northwest 461 531 30,000  Level FlightAware ADS-B
Fri 07:01:37 AM 46.5490 23.9970 320° Northwest 461 531 30,000  Level FlightAware ADS-B
Fri 07:02:17 AM 46.6180 23.9140 320° Northwest 467 537 30,000  Level FlightAware ADS-B
Fri 07:02:52 AM 46.6760 23.8430 320° Northwest 467 537 30,000  Level FlightAware ADS-B
Fri 07:03:42 AM 46.7590 23.7410 320° Northwest 467 537 30,000  Level FlightAware ADS-B
Fri 07:04:22 AM 46.8230 23.6630 320° Northwest 469 540 30,000  Level FlightAware ADS-B
Fri 07:05:07 AM 46.9010 23.5680 320° Northwest 468 539 30,000  Level FlightAware ADS-B
Fri 07:05:42 AM 46.9550 23.5010 320° Northwest 469 540 30,000  Level FlightAware ADS-B
Fri 07:06:27 AM 47.0320 23.4060 320° Northwest 469 540 30,000  Level FlightAware ADS-B
Fri 07:07:12 AM 47.1110 23.3170 323° Northwest 471 542 30,000  Level FlightAware ADS-B
Fri 07:07:52 AM 47.1810 23.2420 324° Northwest 470 541 30,000  Level FlightAware ADS-B
Fri 07:08:37 AM 47.2580 23.1560 323° Northwest 471 542 30,000  Level FlightAware ADS-B
Fri 07:09:12 AM 47.3130 23.0950 323° Northwest 472 543 30,000  Level FlightAware ADS-B
Fri 07:09:52 AM 47.3900 23.0120 324° Northwest 472 543 30,000  Level FlightAware ADS-B
Fri 07:10:37 AM 47.4680 22.9270 324° Northwest 472 543 30,000  Level FlightAware ADS-B
Fri 07:11:22 AM 47.5470 22.8400 323° Northwest 473 544 30,000  Level FlightAware ADS-B
Fri 07:12:07 AM 47.6240 22.7550 323° Northwest 473 544 30,000  Level FlightAware ADS-B
Fri 07:12:47 AM 47.6980 22.6730 323° Northwest 474 545 30,000  Level FlightAware ADS-B
Fri 07:13:22 AM 47.7560 22.6090 323° Northwest 474 545 30,000 565 Level FlightAware ADS-B
Fri 07:14:12 AM 47.8460 22.5090 323° Northwest 472 543 30,800 1,133 Climbing FlightAware ADS-B
Fri 07:14:52 AM 47.9120 22.4350 323° Northwest 469 540 31,700 960 Climbing FlightAware ADS-B
Fri 07:15:27 AM 47.9770 22.3630 323° Northwest 464 534 32,000 225 Climbing FlightAware ADS-B
Fri 07:16:12 AM 48.0580 22.2710 323° Northwest 466 536 32,000  Level FlightAware ADS-B
Fri 07:16:57 AM 48.1330 22.1870 323° Northwest 466 536 32,000  Level FlightAware ADS-B
Fri 07:17:42 AM 48.2070 22.1030 323° Northwest 466 536 32,000  Level FlightAware ADS-B
Fri 07:18:22 AM 48.2800 22.0210 323° Northwest 466 536 32,000  Level FlightAware ADS-B
Fri 07:19:02 AM 48.3490 21.9430 323° Northwest 468 539 32,000  Level FlightAware ADS-B
Fri 07:19:47 AM 48.4270 21.8670 327° Northwest 469 540 32,000  Level FlightAware ADS-B
Fri 07:20:27 AM 48.5000 21.7990 328° Northwest 469 540 32,000  Level FlightAware ADS-B
Fri 07:21:12 AM 48.5830 21.7230 329° Northwest 468 539 32,000  Level FlightAware ADS-B
Fri 07:21:52 AM 48.6560 21.6550 328° Northwest 467 537 32,000  Level FlightAware ADS-B
Fri 07:22:37 AM 48.7400 21.5760 328° Northwest 467 537 32,000  Level FlightAware ADS-B
Fri 07:23:17 AM 48.8150 21.5060 328° Northwest 467 537 32,000  Level FlightAware ADS-B
Fri 07:23:57 AM 48.8890 21.4360 328° Northwest 465 535 32,000  Level FlightAware ADS-B
Fri 07:24:42 AM 48.9740 21.3560 328° Northwest 466 536 32,000  Level FlightAware ADS-B
Fri 07:25:22 AM 49.0470 21.2870 328° Northwest 465 535 32,000  Level FlightAware ADS-B
Fri 07:26:02 AM 49.1200 21.2190 329° Northwest 469 540 32,000  Level FlightAware ADS-B
Fri 07:26:47 AM 49.2100 21.1690 340° North 474 545 32,000  Level FlightAware ADS-B
Fri 07:27:27 AM 49.2920 21.1230 340° North 473 544 32,000  Level FlightAware ADS-B
Fri 07:28:07 AM 49.3690 21.0760 338° Northwest 474 545 32,000  Level FlightAware ADS-B
Fri 07:28:52 AM 49.4670 21.0230 341° North 476 548 32,000  Level FlightAware ADS-B
Fri 07:29:32 AM 49.5480 20.9800 341° North 477 549 32,000  Level FlightAware ADS-B
Fri 07:30:17 AM 49.6410 20.9290 340° North 477 549 32,000  Level FlightAware ADS-B
Fri 07:30:57 AM 49.7240 20.8830 340° North 478 550 32,000  Level FlightAware ADS-B
Fri 07:31:42 AM 49.8160 20.8330 341° North 479 551 32,000  Level FlightAware ADS-B
Fri 07:32:22 AM 49.8990 20.7870 340° North 479 551 32,000  Level FlightAware ADS-B
Fri 07:33:02 AM 49.9870 20.7390 341° North 479 551 32,000  Level FlightAware ADS-B
Fri 07:33:47 AM 50.0800 20.6870 340° North 478 550 32,000  Level FlightAware ADS-B
Fri 07:34:27 AM 50.1660 20.6400 341° North 478 550 32,000  Level FlightAware ADS-B
Fri 07:35:12 AM 50.2580 20.5880 340° North 479 551 32,000  Level FlightAware ADS-B
Fri 07:35:52 AM 50.3370 20.5440 340° North 479 551 32,000  Level FlightAware ADS-B
Fri 07:36:32 AM 50.4260 20.4940 340° North 479 551 32,000  Level FlightAware ADS-B
Fri 07:37:17 AM 50.5210 20.4410 340° North 478 550 32,000  Level FlightAware ADS-B
Fri 07:37:57 AM 50.6000 20.3960 340° North 478 550 32,000  Level FlightAware ADS-B
Fri 07:38:42 AM 50.6910 20.3440 340° North 477 549 32,000  Level FlightAware ADS-B
Fri 07:39:22 AM 50.7730 20.2970 340° North 477 549 32,000  Level FlightAware ADS-B
Fri 07:40:02 AM 50.8580 20.2490 340° North 478 550 32,000  Level FlightAware ADS-B
Fri 07:40:47 AM 50.9560 20.1930 340° North 478 550 32,000  Level FlightAware ADS-B
Fri 07:41:27 AM 51.0400 20.1450 340° North 478 550 32,000  Level FlightAware ADS-B
Fri 07:42:07 AM 51.1220 20.0970 340° North 479 551 32,000  Level FlightAware ADS-B
Fri 07:42:52 AM 51.2130 20.0440 340° North 479 551 32,000  Level FlightAware ADS-B
Fri 07:43:32 AM 51.2980 19.9940 340° North 478 550 32,000  Level FlightAware ADS-B
Fri 07:44:17 AM 51.3930 19.9390 340° North 477 549 32,000  Level FlightAware ADS-B
Fri 07:44:57 AM 51.4710 19.8930 340° North 477 549 32,000  Level FlightAware ADS-B
Fri 07:45:37 AM 51.5500 19.8460 340° North 477 549 32,000  Level FlightAware ADS-B
Fri 07:46:22 AM 51.6490 19.7870 340° North 476 548 32,000  Level FlightAware ADS-B
Fri 07:47:02 AM 51.7310 19.7380 340° North 477 549 32,000  Level FlightAware ADS-B
Fri 07:47:47 AM 51.8270 19.6810 340° North 477 549 32,000  Level FlightAware ADS-B
Fri 07:48:27 AM 51.9090 19.6320 340° North 477 549 32,000  Level FlightAware ADS-B
Fri 07:49:12 AM 52.0000 19.5770 340° North 476 548 32,000  Level FlightAware ADS-B
Fri 07:49:52 AM 52.0830 19.5270 340° North 476 548 32,000  Level FlightAware ADS-B
Fri 07:50:32 AM 52.1640 19.4770 339° North 474 545 32,000  Level FlightAware ADS-B
Fri 07:51:17 AM 52.2590 19.4190 340° North 473 544 32,000  Level FlightAware ADS-B
Fri 07:51:57 AM 52.3410 19.3690 340° North 473 544 32,000  Level FlightAware ADS-B
Fri 07:52:42 AM 52.4310 19.3130 339° North 474 545 32,000  Level FlightAware ADS-B
Fri 07:53:22 AM 52.5130 19.2620 339° North 473 544 32,000  Level FlightAware ADS-B
Fri 07:54:02 AM 52.5950 19.2120 340° North 474 545 32,000  Level FlightAware ADS-B
Fri 07:54:47 AM 52.6890 19.1530 339° North 474 545 32,000  Level FlightAware ADS-B
Fri 07:55:27 AM 52.7710 19.1020 339° North 474 545 32,000  Level FlightAware ADS-B
Fri 07:56:12 AM 52.8580 19.0470 339° North 475 547 32,000  Level FlightAware ADS-B
Fri 07:56:52 AM 52.9430 18.9930 339° North 475 547 32,000  Level FlightAware ADS-B
Fri 07:57:32 AM 53.0250 18.9410 339° North 474 545 32,000  Level FlightAware ADS-B
Fri 07:58:17 AM 53.1180 18.8820 339° North 472 543 32,000  Level FlightAware ADS-B
Fri 07:58:57 AM 53.1990 18.8300 339° North 473 544 32,000  Level FlightAware ADS-B
Fri 07:59:42 AM 53.2860 18.7740 339° North 472 543 32,000  Level FlightAware ADS-B
Fri 08:00:22 AM 53.3660 18.7220 339° North 471 542 32,000  Level FlightAware ADS-B
Fri 08:01:02 AM 53.4490 18.6690 339° North 472 543 32,000  Level FlightAware ADS-B
Fri 08:01:42 AM 53.5310 18.6150 339° North 472 543 32,000  Level FlightAware ADS-B
Fri 08:02:22 AM 53.6120 18.5620 339° North 473 544 32,000  Level FlightAware ADS-B
Fri 08:03:12 AM 53.7110 18.4970 339° North 474 545 32,000  Level FlightAware ADS-B
Fri 08:03:52 AM 53.7960 18.4410 339° North 473 544 32,000  Level FlightAware ADS-B
Fri 08:04:32 AM 53.8780 18.3870 339° North 474 545 32,000  Level FlightAware ADS-B
Fri 08:05:17 AM 53.9630 18.3300 338° Northwest 472 543 32,000  Level FlightAware ADS-B
Fri 08:05:57 AM 54.0530 18.2700 339° North 473 544 32,000  Level FlightAware ADS-B
Fri 08:06:42 AM 54.1460 18.2080 339° North 473 544 32,000  Level FlightAware ADS-B
Fri 08:07:22 AM 54.2250 18.1540 338° Northwest 473 544 32,000  Level FlightAware ADS-B
Fri 08:08:02 AM 54.3030 18.1010 338° Northwest 472 543 32,000  Level FlightAware ADS-B
Fri 08:08:47 AM 54.3980 18.0360 338° Northwest 471 542 32,000  Level FlightAware ADS-B
Fri 08:09:27 AM 54.4800 17.9800 338° Northwest 470 541 32,000  Level FlightAware ADS-B
Fri 08:10:12 AM 54.5680 17.9200 338° Northwest 470 541 32,000  Level FlightAware ADS-B
Fri 08:10:52 AM 54.6480 17.8650 338° Northwest 471 542 32,000  Level FlightAware ADS-B
Fri 08:11:32 AM 54.7330 17.8060 338° Northwest 470 541 32,000  Level FlightAware ADS-B
Fri 08:12:17 AM 54.8230 17.7440 338° Northwest 472 543 32,000  Level FlightAware ADS-B
Fri 08:12:57 AM 54.9030 17.6870 338° Northwest 472 543 32,000  Level FlightAware ADS-B
Fri 08:13:37 AM 54.9840 17.6300 338° Northwest 471 542 32,000  Level FlightAware ADS-B
Fri 08:14:22 AM 55.0730 17.5680 338° Northwest 471 542 32,000  Level FlightAware ADS-B
Fri 08:15:02 AM 55.1570 17.5080 338° Northwest 470 541 32,000  Level FlightAware ADS-B
Fri 08:15:42 AM 55.2400 17.4630 343° North 492 566 32,000  Level FlightAware ADS-B
Fri 08:16:22 AM 55.3290 17.4540 357° North 496 571 32,000  Level FlightAware ADS-B
Fri 08:17:07 AM 55.4240 17.4400 355° North 493 567 32,000  Level FlightAware ADS-B
Fri 08:17:52 AM 55.5330 17.4180 353° North 491 565 32,000  Level FlightAware ADS-B
Fri 08:18:32 AM 55.6240 17.3980 353° North 489 563 32,000  Level FlightAware ADS-B
Fri 08:19:17 AM 55.7260 17.3790 354° North 496 571 32,000  Level FlightAware ADS-B
Fri 08:19:57 AM 55.8170 17.3680 356° North 496 571 32,000  Level FlightAware ADS-B
Fri 08:20:37 AM 55.9080 17.3560 356° North 494 568 32,000  Level FlightAware ADS-B
Fri 08:21:22 AM 56.0090 17.3420 356° North 493 567 32,000  Level FlightAware ADS-B
Fri 08:22:02 AM 56.1000 17.3290 355° North 493 567 32,000  Level FlightAware ADS-B
Fri 08:22:47 AM 56.2040 17.3150 356° North 492 566 32,000  Level FlightAware ADS-B
Fri 08:23:27 AM 56.2940 17.3020 355° North 492 566 32,000  Level FlightAware ADS-B
Fri 08:24:07 AM 56.3840 17.2890 355° North 492 566 32,000  Level FlightAware ADS-B
Fri 08:24:52 AM 56.4850 17.2750 356° North 492 566 32,000  Level FlightAware ADS-B
Fri 08:25:32 AM 56.5760 17.2620 356° North 491 565 32,000  Level FlightAware ADS-B
Fri 08:26:17 AM 56.6800 17.2480 356° North 489 563 32,000  Level FlightAware ADS-B
Fri 08:26:57 AM 56.7670 17.2350 355° North 488 562 32,000  Level FlightAware ADS-B
Fri 08:27:37 AM 56.8600 17.2220 356° North 488 562 32,000  Level FlightAware ADS-B
Fri 08:28:22 AM 56.9610 17.2070 355° North 487 560 32,000  Level FlightAware ADS-B
Fri 08:29:02 AM 57.0450 17.1950 356° North 488 562 32,000  Level FlightAware ADS-B
Fri 08:29:42 AM 57.1360 17.1820 356° North 487 560 32,000  Level FlightAware ADS-B
Fri 08:30:27 AM 57.2400 17.1670 356° North 487 560 32,000  Level FlightAware ADS-B
Fri 08:31:07 AM 57.3300 17.1530 355° North 486 559 32,000  Level FlightAware ADS-B
Fri 08:31:52 AM 57.4300 17.1390 356° North 484 557 32,000  Level FlightAware ADS-B
Fri 08:32:32 AM 57.5180 17.1260 355° North 482 555 32,000  Level FlightAware ADS-B
Fri 08:33:17 AM 57.6210 17.1100 355° North 483 556 32,000  Level FlightAware ADS-B
Fri 08:33:57 AM 57.7110 17.0970 356° North 484 557 32,000  Level FlightAware ADS-B
Fri 08:34:37 AM 57.7990 17.0830 355° North 486 559 32,000  Level FlightAware ADS-B
Fri 08:35:22 AM 57.8950 17.0690 356° North 488 562 32,000  Level FlightAware ADS-B
Fri 08:36:02 AM 57.9880 17.0550 355° North 489 563 32,000  Level FlightAware ADS-B
Fri 08:36:47 AM 58.0910 17.0390 355° North 489 563 32,000  Level FlightAware ADS-B
Fri 08:37:27 AM 58.1800 17.0250 355° North 489 563 32,000  Level FlightAware ADS-B
Fri 08:38:07 AM 58.2710 17.0110 355° North 488 562 32,000  Level FlightAware ADS-B
Fri 08:38:52 AM 58.3690 16.9960 355° North 487 560 32,000  Level FlightAware ADS-B
Fri 08:39:32 AM 58.4590 16.9820 355° North 488 562 32,000  Level FlightAware ADS-B
Fri 08:40:12 AM 58.5490 16.9680 355° North 488 562 32,000  Level FlightAware ADS-B
Fri 08:41:02 AM 58.6610 16.9500 355° North 483 556 32,000  Level FlightAware ADS-B
Fri 08:41:42 AM 58.7500 16.9360 355° North 484 557 32,000  Level FlightAware ADS-B
Fri 08:42:22 AM 58.8390 16.9210 355° North 485 558 32,000  Level FlightAware ADS-B
Fri 08:43:07 AM 58.9410 16.9050 355° North 486 559 32,000  Level FlightAware ADS-B
Fri 08:43:47 AM 59.0310 16.8910 355° North 484 557 32,000  Level FlightAware ADS-B
Fri 08:44:32 AM 59.1280 16.8750 355° North 482 555 32,000  Level FlightAware ADS-B
Fri 08:45:12 AM 59.2180 16.8600 355° North 482 555 32,000  Level FlightAware ADS-B
Fri 08:45:52 AM 59.3060 16.8460 355° North 483 556 32,000  Level FlightAware ADS-B
Fri 08:46:37 AM 59.4080 16.8290 355° North 484 557 32,000  Level FlightAware ADS-B
Fri 08:47:17 AM 59.4970 16.8140 355° North 487 560 32,000  Level FlightAware ADS-B
Fri 08:48:02 AM 59.5960 16.7980 355° North 485 558 32,000  Level FlightAware ADS-B
Fri 08:48:42 AM 59.6850 16.7820 355° North 486 559 32,000  Level FlightAware ADS-B
Fri 08:49:22 AM 59.7750 16.7670 355° North 485 558 32,000  Level FlightAware ADS-B
Fri 08:50:07 AM 59.8770 16.7430 353° North 473 544 32,000  Level FlightAware ADS-B
Fri 08:50:47 AM 59.9600 16.7010 346° North 462 532 32,000  Level FlightAware ADS-B
Fri 08:51:27 AM 60.0400 16.6440 340° North 458 527 32,000  Level FlightAware ADS-B
Fri 08:52:12 AM 60.1280 16.5830 341° North 458 527 32,000  Level FlightAware ADS-B
Fri 08:52:52 AM 60.2070 16.5250 340° North 458 527 32,000  Level FlightAware ADS-B
Fri 08:53:32 AM 60.2850 16.4680 340° North 459 528 32,000  Level FlightAware ADS-B
Fri 08:54:17 AM 60.3780 16.4000 340° North 459 528 32,000  Level FlightAware ADS-B
Fri 08:54:57 AM 60.4560 16.3420 340° North 460 529 32,000  Level FlightAware ADS-B
Fri 08:55:42 AM 60.5460 16.2760 340° North 463 533 32,000  Level FlightAware ADS-B
Fri 08:56:22 AM 60.6250 16.2180 340° North 463 533 32,000  Level FlightAware ADS-B
Fri 08:57:07 AM 60.7180 16.1480 340° North 465 535 32,000  Level FlightAware ADS-B
Fri 08:57:47 AM 60.7990 16.0880 340° North 467 537 32,000  Level FlightAware ADS-B
Fri 08:58:27 AM 60.8810 16.0260 340° North 467 537 32,000  Level FlightAware ADS-B
Fri 08:59:12 AM 60.9690 15.9590 340° North 463 533 32,000  Level FlightAware ADS-B
Fri 08:59:52 AM 61.0420 15.9030 340° North 465 535 32,000  Level FlightAware ADS-B
Fri 09:00:32 AM 61.1180 15.8450 340° North 465 535 32,000  Level FlightAware ADS-B
Fri 09:01:17 AM 61.2230 15.7640 340° North 464 534 32,000  Level FlightAware ADS-B
Fri 09:01:57 AM 61.3000 15.7040 339° North 465 535 32,000  Level FlightAware ADS-B
Fri 09:02:42 AM 61.3900 15.6340 340° North 468 539 32,000  Level FlightAware ADS-B
Fri 09:03:22 AM 61.4710 15.5700 339° North 468 539 32,000  Level FlightAware ADS-B
Fri 09:04:02 AM 61.5510 15.5070 339° North 471 542 32,000  Level FlightAware ADS-B
Fri 09:04:47 AM 61.6430 15.4340 339° North 472 543 32,000  Level FlightAware ADS-B
Fri 09:05:27 AM 61.7280 15.3660 339° North 475 547 32,000  Level FlightAware ADS-B
Fri 09:06:12 AM 61.8160 15.2960 339° North 476 548 32,000  Level FlightAware ADS-B
Fri 09:06:52 AM 61.8990 15.2280 339° North 475 547 32,000  Level FlightAware ADS-B
Fri 09:07:37 AM 61.9940 15.1510 339° North 475 547 32,000  Level FlightAware ADS-B
Fri 09:08:17 AM 62.0760 15.0840 339° North 476 548 32,000  Level FlightAware ADS-B
Fri 09:08:57 AM 62.1580 15.0160 339° North 475 547 32,000  Level FlightAware ADS-B
Fri 09:09:37 AM 62.2390 14.9490 339° North 477 549 32,000  Level FlightAware ADS-B
Fri 09:10:22 AM 62.3310 14.8730 339° North 477 549 32,000  Level FlightAware ADS-B
Fri 09:11:02 AM 62.4120 14.8040 338° Northwest 478 550 32,000  Level FlightAware ADS-B
Fri 09:11:47 AM 62.5030 14.7280 339° North 479 551 32,000  Level FlightAware ADS-B
Fri 09:12:27 AM 62.5860 14.6570 339° North 479 551 32,000  Level FlightAware ADS-B
Fri 09:13:07 AM 62.6670 14.5880 339° North 479 551 32,000  Level FlightAware ADS-B
Fri 09:13:52 AM 62.7600 14.5080 339° North 479 551 32,000  Level FlightAware ADS-B
Fri 09:14:32 AM 62.8430 14.4360 338° Northwest 477 549 32,000  Level FlightAware ADS-B
Fri 09:15:12 AM 62.9220 14.3670 338° Northwest 477 549 32,000  Level FlightAware ADS-B
Fri 09:15:57 AM 63.0180 14.2830 338° Northwest 477 549 32,000  Level FlightAware ADS-B
Fri 09:16:37 AM 63.0980 14.2130 338° Northwest 478 550 32,000  Level FlightAware ADS-B
Fri 09:17:22 AM 63.1920 14.1290 338° Northwest 479 551 32,000  Level FlightAware ADS-B
Fri 09:18:02 AM 63.2740 14.0560 338° Northwest 480 552 32,000  Level FlightAware ADS-B
Fri 09:18:42 AM 63.3490 13.9890 338° Northwest 477 549 32,000  Level FlightAware ADS-B
Fri 09:19:27 AM 63.4460 13.9010 338° Northwest 478 550 32,000  Level FlightAware ADS-B
Fri 09:20:07 AM 63.5300 13.8240 338° Northwest 477 549 32,000  Level FlightAware ADS-B
Fri 09:20:47 AM 63.6110 13.7500 338° Northwest 476 548 32,000  Level FlightAware ADS-B
Fri 09:21:32 AM 63.7010 13.6670 338° Northwest 470 541 32,000  Level FlightAware ADS-B
Fri 09:22:12 AM 63.7830 13.5910 338° Northwest 468 539 32,000  Level FlightAware ADS-B
Fri 09:22:57 AM 63.8740 13.5050 337° Northwest 470 541 32,000  Level FlightAware ADS-B
Fri 09:23:37 AM 63.9560 13.4290 338° Northwest 471 542 32,000  Level FlightAware ADS-B
Fri 09:24:22 AM 64.0430 13.3460 337° Northwest 469 540 32,000  Level FlightAware ADS-B
Fri 09:25:02 AM 64.1280 13.2660 338° Northwest 469 540 32,000  Level FlightAware ADS-B
Fri 09:25:42 AM 64.2040 13.1920 337° Northwest 469 540 32,000  Level FlightAware ADS-B
Fri 09:26:42 AM 64.3290 13.0710 337° Northwest 470 541 32,000  Level FlightAware ADS-B
Fri 09:27:32 AM 64.4230 12.9790 337° Northwest 469 540 32,000  Level FlightAware ADS-B
Fri 09:28:32 AM 64.5470 12.8570 337° Northwest 475 547 32,000  Level FlightAware ADS-B
Fri 09:29:07 AM 64.6190 12.7860 337° Northwest 474 545 32,000  Level FlightAware ADS-B
Fri 09:29:57 AM 64.7220 12.6830 337° Northwest 471 542 32,000  Level FlightAware ADS-B
Fri 09:30:37 AM 64.7940 12.6110 337° Northwest 470 541 32,000  Level FlightAware ADS-B
Fri 09:31:37 AM 64.9100 12.4910 336° Northwest 472 543 32,000  Level FlightAware ADS-B
Fri 09:32:17 AM 65.0030 12.3980 337° Northwest 32,000  Level FlightAware ADS-B
Fri 09:32:57 AM 65.0710 12.3270 336° Northwest 473 544 32,000  Level FlightAware ADS-B
Fri 09:33:37 AM 65.1390 12.2550 336° Northwest 473 544 32,000  Level FlightAware ADS-B
Fri 09:34:17 AM 65.2070 12.1830 336° Northwest 473 544 32,000  Level FlightAware ADS-B
Fri 09:35:17 AM 65.3640 12.0220 337° Northwest 472 543 32,000  Level FlightAware ADS-B
Fri 09:36:12 AM 65.4640 11.9150 336° Northwest 474 545 32,000  Level FlightAware ADS-B
Fri 09:36:52 AM 65.5320 11.8420 336° Northwest 474 545 32,000  Level FlightAware ADS-B
Fri 09:37:42 AM 65.6170 11.7510 336° Northwest 474 545 32,000  Level FlightAware ADS-B
Fri 09:38:22 AM 65.6850 11.6770 336° Northwest 474 545 32,000  Level FlightAware ADS-B
Fri 09:39:02 AM 65.7530 11.6030 336° Northwest 474 545 32,000  Level FlightAware ADS-B
Fri 09:41:00 AM 65.9371 11.2009 318° Northwest  Level Estimated
Fri 09:42:00 AM 66.0303 10.9942 318° Northwest  Level Estimated
Fri 09:43:00 AM 66.1233 10.7860 318° Northwest  Level Estimated
Fri 09:43:47 AM 66.3630 10.9230 318° Northwest 463 533 32,000  Level FlightAware ADS-B
Fri 09:44:57 AM 66.5070 10.7570 335° Northwest 464 534 32,000  Level FlightAware ADS-B
Fri 09:45:42 AM 66.5930 10.6540 335° Northwest 465 535 32,000  Level FlightAware ADS-B
Fri 09:47:27 AM 66.8030 10.4070 335° Northwest 466 536 32,000  Level FlightAware ADS-B
Fri 09:48:27 AM 66.9200 10.2670 335° Northwest 463 533 32,000  Level FlightAware ADS-B
Fri 09:49:07 AM 67.0040 10.1650 335° Northwest 464 534 32,000  Level FlightAware ADS-B
Fri 09:49:47 AM 67.0690 10.0870 335° Northwest 464 534 32,000  Level FlightAware ADS-B
Fri 09:50:27 AM 67.1480 9.9880 334° Northwest 464 534 32,000  Level FlightAware ADS-B
Fri 09:51:07 AM 67.2140 9.9050 334° Northwest 464 534 32,000  Level FlightAware ADS-B
Fri 09:51:57 AM 67.2960 9.8020 334° Northwest 464 534 32,000  Level FlightAware ADS-B
Fri 09:52:37 AM 67.3610 9.7190 334° Northwest 464 534 32,000  Level FlightAware ADS-B
Fri 09:53:17 AM 67.4270 9.6350 334° Northwest 464 534 32,000  Level FlightAware ADS-B
Fri 09:53:57 AM 67.4930 9.5520 334° Northwest 464 534 32,000  Level FlightAware ADS-B
Fri 09:54:37 AM 67.5580 9.4680 334° Northwest 464 534 32,000  Level FlightAware ADS-B
Fri 09:55:17 AM 67.6240 9.3840 334° Northwest 464 534 32,000  Level FlightAware ADS-B
Fri 09:56:07 AM 67.7060 9.2790 334° Northwest 464 534 32,000  Level FlightAware ADS-B
Fri 09:56:47 AM 67.7710 9.1940 334° Northwest 464 534 32,000  Level FlightAware ADS-B
Fri 09:57:27 AM 67.8370 9.1100 334° Northwest 464 534 32,000  Level FlightAware ADS-B
Fri 09:58:07 AM 67.9030 9.0250 334° Northwest 464 534 32,000  Level FlightAware ADS-B
Fri 09:58:47 AM 67.9680 8.9400 334° Northwest 464 534 32,000  Level FlightAware ADS-B
Fri 09:59:37 AM 68.0500 8.8330 334° Northwest 464 534 32,000 Level FlightAware ADS-B
Fri 10:02:00 AM 68.2628 8.2676 316° Northwest  Level Estimated
Fri 10:03:00 AM 68.3516 8.0273 315° West  Level Estimated
Fri 10:04:00 AM 68.4399 7.7850 315° West  Level Estimated
Fri 10:05:00 AM 68.5280 7.5409 315° West  Level Estimated
Fri 10:06:00 AM 68.6156 7.2949 314° West  Level Estimated
Fri 10:07:00 AM 68.7029 7.0469 314° West  Level Estimated
Fri 10:08:00 AM 68.7899 6.7970 314° West  Level Estimated
Fri 10:09:00 AM 68.8764 6.5451 314° West  Level Estimated
Fri 10:10:00 AM 68.9626 6.2913 313° West  Level Estimated
Fri 10:11:00 AM 69.0484 6.0354 313° West  Level Estimated
Fri 10:12:00 AM 69.1339 5.7776 313° West  Level Estimated
Fri 10:13:00 AM 69.2189 5.5177 313° West  Level Estimated
Fri 10:14:00 AM 69.3036 5.2558 313° West  Level Estimated
Fri 10:15:00 AM 69.3878 4.9919 312° West  Level Estimated
Fri 10:16:00 AM 69.4716 4.7259 312° West  Level Estimated
Fri 10:17:00 AM 69.5551 4.4578 312° West  Level Estimated
Fri 10:18:00 AM 69.6381 4.1876 312° West  Level Estimated
Fri 10:19:00 AM 69.7207 3.9153 311° West  Level Estimated
Fri 10:20:00 AM 69.8029 3.6409 311° West  Level Estimated
Fri 10:21:00 AM 69.8846 3.3643 311° West  Level Estimated
Fri 10:22:00 AM 69.9659 3.0856 310° West  Level Estimated
Fri 10:23:00 AM 70.0468 2.8046 310° West  Level Estimated
Fri 10:24:00 AM 70.1272 2.5215 310° West  Level Estimated
Fri 10:25:00 AM 70.2072 2.2363 310° West  Level Estimated
Fri 10:26:00 AM 70.2867 1.9488 309° West  Level Estimated
Fri 10:27:00 AM 70.3658 1.6590 309° West  Level Estimated
Fri 10:28:00 AM 70.4444 1.3670 309° West  Level Estimated
Fri 10:29:00 AM 70.5225 1.0728 309° West  Level Estimated
Fri 10:30:00 AM 70.6002 0.7763 308° West  Level Estimated
Fri 10:31:00 AM 70.6773 0.4775 308° West  Level Estimated
Fri 10:32:00 AM 70.7540 0.1764 308° West  Level Estimated
Fri 10:33:00 AM 70.8301 -0.1270 307° West  Level Estimated
Fri 10:34:00 AM 70.9058 -0.4327 307° West  Level Estimated
Fri 10:35:00 AM 70.9810 -0.7408 307° West  Level Estimated
Fri 10:36:00 AM 71.0556 -1.0512 307° West  Level Estimated
Fri 10:37:00 AM 71.1298 -1.3639 306° West  Level Estimated
Fri 10:38:00 AM 71.2034 -1.6790 306° West  Level Estimated
Fri 10:39:00 AM 71.2764 -1.9965 306° West  Level Estimated
Fri 10:40:00 AM 71.3490 -2.3164 305° West  Level Estimated
Fri 10:41:00 AM 71.4209 -2.6387 305° West  Level Estimated
Fri 10:42:00 AM 71.4924 -2.9634 305° West  Level Estimated
Fri 10:43:00 AM 71.5632 -3.2905 305° West  Level Estimated
Fri 10:44:00 AM 71.6336 -3.6201 304° West  Level Estimated
Fri 10:45:00 AM 71.7033 -3.9521 304° West  Level Estimated
Fri 10:46:00 AM 71.7725 -4.2865 304° West  Level Estimated
Fri 10:47:00 AM 71.8410 -4.6234 303° West  Level Estimated
Fri 10:48:00 AM 71.9090 -4.9627 303° West  Level Estimated
Fri 10:49:00 AM 71.9764 -5.3045 303° West  Level Estimated
Fri 10:50:00 AM 72.0432 -5.6487 302° West  Level Estimated
Fri 10:51:00 AM 72.1094 -5.9955 302° West  Level Estimated
Fri 10:52:00 AM 72.1749 -6.3447 302° West  Level Estimated
Fri 10:53:00 AM 72.2398 -6.6964 301° West  Level Estimated
Fri 10:54:00 AM 72.3041 -7.0506 301° West  Level Estimated
Fri 10:55:00 AM 72.3678 -7.4072 301° West  Level Estimated
Fri 10:56:00 AM 72.4308 -7.7664 300° West  Level Estimated
Fri 10:57:00 AM 72.4932 -8.1281 300° West  Level Estimated
Fri 10:58:00 AM 72.5549 -8.4922 300° West  Level Estimated
Fri 10:59:00 AM 72.6159 -8.8588 299° West  Level Estimated
Fri 11:00:00 AM 72.6763 -9.2280 299° West  Level Estimated
Fri 11:01:00 AM 72.7359 -9.5996 299° West  Level Estimated
Fri 11:02:00 AM 72.7949 -9.9736 298° West  Level Estimated
Fri 11:03:00 AM 72.8532 -10.3502 298° West  Level Estimated
Fri 11:04:00 AM 72.9108 -10.7293 297° West  Level Estimated
Fri 11:05:00 AM 72.9677 -11.1108 297° West  Level Estimated
Fri 11:06:00 AM 73.0239 -11.4948 297° West  Level Estimated
Fri 11:07:00 AM 73.0793 -11.8812 296° West  Level Estimated
Fri 11:08:00 AM 73.1341 -12.2701 296° West  Level Estimated
Fri 11:09:00 AM 73.1880 -12.6615 296° West  Level Estimated
Fri 11:10:00 AM 73.2413 -13.0553 295° West  Level Estimated
Fri 11:11:00 AM 73.2938 -13.4514 295° West  Level Estimated
Fri 11:12:00 AM 73.3455 -13.8500 295° West  Level Estimated
Fri 11:13:00 AM 73.3964 -14.2510 294° West  Level Estimated
Fri 11:14:00 AM 73.4466 -14.6544 294° West  Level Estimated
Fri 11:15:00 AM 73.4960 -15.0602 293° West  Level Estimated
Fri 11:16:00 AM 73.5447 -15.4682 293° West  Level Estimated
Fri 11:17:00 AM 73.5925 -15.8787 293° West  Level Estimated
Fri 11:18:00 AM 73.6395 -16.2914 292° West  Level Estimated
Fri 11:19:00 AM 73.6857 -16.7064 292° West  Level Estimated
Fri 11:20:00 AM 73.7311 -17.1237 291° West  Level Estimated
Fri 11:21:00 AM 73.7757 -17.5433 291° West  Level Estimated
Fri 11:22:00 AM 73.8195 -17.9651 291° West  Level Estimated
Fri 11:23:00 AM 73.8624 -18.3891 290° West  Level Estimated
Fri 11:24:00 AM 73.9045 -18.8153 290° West  Level Estimated
Fri 11:25:00 AM 73.9457 -19.2436 289° West  Level Estimated
Fri 11:26:00 AM 73.9861 -19.6740 289° West  Level Estimated
Fri 11:27:00 AM 74.0256 -20.1066 289° West  Level Estimated
Fri 11:28:00 AM 74.0642 -20.5412 288° West  Level Estimated
Fri 11:29:00 AM 74.1020 -20.9778 288° West  Level Estimated
Fri 11:30:00 AM 74.1388 -21.4165 287° West  Level Estimated
Fri 11:31:00 AM 74.1749 -21.8571 287° West  Level Estimated
Fri 11:32:00 AM 74.2100 -22.2996 286° West  Level Estimated
Fri 11:33:00 AM 74.2442 -22.7441 286° West  Level Estimated
Fri 11:34:00 AM 74.2775 -23.1904 286° West  Level Estimated
Fri 11:35:00 AM 74.3099 -23.6385 285° West  Level Estimated
Fri 11:36:00 AM 74.3413 -24.0884 285° West  Level Estimated
Fri 11:37:00 AM 74.3719 -24.5401 284° West  Level Estimated
Fri 11:38:00 AM 74.4015 -24.9934 284° West  Level Estimated
Fri 11:39:00 AM 74.4302 -25.4484 283° West  Level Estimated
Fri 11:40:00 AM 74.4580 -25.9050 283° West  Level Estimated
Fri 11:41:00 AM 74.4848 -26.3632 283° West  Level Estimated
Fri 11:42:00 AM 74.5106 -26.8229 282° West  Level Estimated
Fri 11:43:00 AM 74.5356 -27.2841 282° West  Level Estimated
Fri 11:44:00 AM 74.5595 -27.7467 281° West  Level Estimated
Fri 11:45:00 AM 74.5825 -28.2106 281° West  Level Estimated
Fri 11:46:00 AM 74.6045 -28.6759 280° West  Level Estimated
Fri 11:47:00 AM 74.6256 -29.1425 280° West  Level Estimated
Fri 11:48:00 AM 74.6457 -29.6103 279° West  Level Estimated
Fri 11:49:00 AM 74.6648 -30.0793 279° West  Level Estimated
Fri 11:50:00 AM 74.6829 -30.5493 279° West  Level Estimated
Fri 11:51:00 AM 74.7001 -31.0205 278° West  Level Estimated
Fri 11:52:00 AM 74.7162 -31.4926 278° West  Level Estimated
Fri 11:53:00 AM 74.7314 -31.9657 277° West  Level Estimated
Fri 11:54:00 AM 74.7456 -32.4396 277° West  Level Estimated
Fri 11:55:00 AM 74.7587 -32.9144 276° West  Level Estimated
Fri 11:56:00 AM 74.7709 -33.3900 276° West  Level Estimated
Fri 11:57:00 AM 74.7821 -33.8662 275° West  Level Estimated
Fri 11:58:00 AM 74.7922 -34.3432 275° West  Level Estimated
Fri 11:59:00 AM 74.8014 -34.8207 274° West  Level Estimated
Fri 12:00:00 PM 74.8095 -35.2987 274° West  Level Estimated
Fri 12:01:00 PM 74.8167 -35.7772 273° West  Level Estimated
Fri 12:02:00 PM 74.8228 -36.2562 273° West  Level Estimated
Fri 12:03:00 PM 74.8279 -36.7355 273° West  Level Estimated
Fri 12:04:00 PM 74.8320 -37.2150 272° West  Level Estimated
Fri 12:05:00 PM 74.8351 -37.6948 272° West  Level Estimated
Fri 12:06:00 PM 74.8372 -38.1747 271° West  Level Estimated
Fri 12:07:00 PM 74.8383 -38.6548 271° West  Level Estimated
Fri 12:08:00 PM 74.8383 -39.1348 270° West  Level Estimated
Fri 12:09:00 PM 74.8373 -39.6149 270° West  Level Estimated
Fri 12:10:00 PM 74.8354 -40.0948 269° West  Level Estimated
Fri 12:11:00 PM 74.8324 -40.5746 269° West  Level Estimated
Fri 12:12:00 PM 74.8284 -41.0542 268° West  Level Estimated
Fri 12:13:00 PM 74.8233 -41.5335 268° West  Level Estimated
Fri 12:14:00 PM 74.8173 -42.0125 267° West  Level Estimated
Fri 12:15:00 PM 74.8102 -42.4911 267° West  Level Estimated
Fri 12:16:00 PM 74.8022 -42.9692 267° West  Level Estimated
Fri 12:17:00 PM 74.7931 -43.4467 266° West  Level Estimated
Fri 12:18:00 PM 74.7830 -43.9237 266° West  Level Estimated
Fri 12:19:00 PM 74.7719 -44.4000 265° West  Level Estimated
Fri 12:20:00 PM 74.7599 -44.8757 265° West  Level Estimated
Fri 12:21:00 PM 74.7468 -45.3505 264° West  Level Estimated
Fri 12:22:00 PM 74.7327 -45.8246 264° West  Level Estimated
Fri 12:23:00 PM 74.7176 -46.2977 263° West  Level Estimated
Fri 12:24:00 PM 74.7016 -46.7700 263° West  Level Estimated
Fri 12:25:00 PM 74.6845 -47.2412 262° West  Level Estimated
Fri 12:26:00 PM 74.6665 -47.7113 262° West  Level Estimated
Fri 12:27:00 PM 74.6475 -48.1804 262° West  Level Estimated
Fri 12:28:00 PM 74.6275 -48.6483 261° West  Level Estimated
Fri 12:29:00 PM 74.6065 -49.1150 261° West  Level Estimated
Fri 12:30:00 PM 74.5846 -49.5804 260° West  Level Estimated
Fri 12:31:00 PM 74.5617 -50.0445 260° West  Level Estimated
Fri 12:32:00 PM 74.5378 -50.5072 259° West  Level Estimated
Fri 12:33:00 PM 74.5129 -50.9685 259° West  Level Estimated
Fri 12:34:00 PM 74.4872 -51.4283 258° West  Level Estimated
Fri 12:35:00 PM 74.4604 -51.8867 258° West  Level Estimated
Fri 12:36:00 PM 74.4328 -52.3434 257° West  Level Estimated
Fri 12:37:00 PM 74.4042 -52.7986 257° West  Level Estimated
Fri 12:38:00 PM 74.3746 -53.2521 257° West  Level Estimated
Fri 12:39:00 PM 74.3441 -53.7039 256° West  Level Estimated
Fri 12:40:00 PM 74.3128 -54.1539 256° West  Level Estimated
Fri 12:41:00 PM 74.2804 -54.6022 255° West  Level Estimated
Fri 12:42:00 PM 74.2472 -55.0487 255° West  Level Estimated
Fri 12:43:00 PM 74.2131 -55.4933 254° West  Level Estimated
Fri 12:44:00 PM 74.1781 -55.9360 254° West  Level Estimated
Fri 12:45:00 PM 74.1422 -56.3768 254° West  Level Estimated
Fri 12:46:00 PM 74.1054 -56.8157 253° West  Level Estimated
Fri 12:47:00 PM 74.0677 -57.2525 253° West  Level Estimated
Fri 12:48:00 PM 74.0291 -57.6873 252° West  Level Estimated
Fri 12:49:00 PM 73.9897 -58.1200 252° West  Level Estimated
Fri 12:50:00 PM 73.9494 -58.5506 251° West  Level Estimated
Fri 12:51:00 PM 73.9082 -58.9792 251° West  Level Estimated
Fri 12:52:00 PM 73.8662 -59.4055 251° West  Level Estimated
Fri 12:53:00 PM 73.8234 -59.8297 250° West  Level Estimated
Fri 12:54:00 PM 73.7797 -60.2517 250° West  Level Estimated
Fri 12:55:00 PM 73.7352 -60.6715 249° West  Level Estimated
Fri 12:56:00 PM 73.6899 -61.0890 249° West  Level Estimated
Fri 12:57:00 PM 73.6437 -61.5042 249° West  Level Estimated
Fri 12:58:00 PM 73.5968 -61.9172 248° West  Level Estimated
Fri 12:59:00 PM 73.5490 -62.3278 248° West  Level Estimated
Fri 01:00:00 PM 73.5005 -62.7361 247° West  Level Estimated
Fri 01:01:00 PM 73.4511 -63.1421 247° West  Level Estimated
Fri 01:02:00 PM 73.4010 -63.5456 247° West  Level Estimated
Fri 01:03:00 PM 73.3501 -63.9468 246° West  Level Estimated
Fri 01:04:00 PM 73.2985 -64.3457 246° West  Level Estimated
Fri 01:05:00 PM 73.2461 -64.7421 246° West  Level Estimated
Fri 01:06:00 PM 73.1929 -65.1361 245° Southwest  Level Estimated
Fri 01:07:00 PM 73.1390 -65.5276 245° Southwest  Level Estimated
Fri 01:08:00 PM 73.0843 -65.9167 244° Southwest  Level Estimated
Fri 01:09:00 PM 73.0290 -66.3034 244° Southwest  Level Estimated
Fri 01:10:00 PM 72.9728 -66.6876 244° Southwest  Level Estimated
Fri 01:11:00 PM 72.9160 -67.0694 243° Southwest  Level Estimated
Fri 01:12:00 PM 72.8585 -67.4487 243° Southwest  Level Estimated
Fri 01:13:00 PM 72.8002 -67.8255 243° Southwest  Level Estimated
Fri 01:14:00 PM 72.7413 -68.1998 242° Southwest  Level Estimated
Fri 01:15:00 PM 72.6817 -68.5716 242° Southwest  Level Estimated
Fri 01:16:00 PM 72.6214 -68.9410 241° Southwest  Level Estimated
Fri 01:17:00 PM 72.5604 -69.3078 241° Southwest  Level Estimated
Fri 01:18:00 PM 72.4988 -69.6722 241° Southwest  Level Estimated
Fri 01:19:00 PM 72.4342 -70.0471 240° Southwest  Level Estimated
Fri 01:20:00 PM 72.3689 -70.4194 240° Southwest  Level Estimated
Fri 01:21:00 PM 72.3030 -70.7890 240° Southwest  Level Estimated
Fri 01:22:00 PM 72.2363 -71.1559 239° Southwest  Level Estimated
Fri 01:23:00 PM 72.1690 -71.5201 239° Southwest  Level Estimated
Fri 01:24:00 PM 72.1010 -71.8817 239° Southwest  Level Estimated
Fri 01:25:00 PM 72.0323 -72.2406 238° Southwest  Level Estimated
Fri 01:26:00 PM 71.9630 -72.5969 238° Southwest  Level Estimated
Fri 01:27:00 PM 71.8931 -72.9505 238° Southwest  Level Estimated
Fri 01:28:00 PM 71.8225 -73.3015 237° Southwest  Level Estimated
Fri 01:29:00 PM 71.7512 -73.6498 237° Southwest  Level Estimated
Fri 01:30:00 PM 71.6794 -73.9955 237° Southwest  Level Estimated
Fri 01:31:00 PM 71.6069 -74.3386 236° Southwest  Level Estimated
Fri 01:32:00 PM 71.5338 -74.6790 236° Southwest  Level Estimated
Fri 01:33:00 PM 71.4601 -75.0169 236° Southwest  Level Estimated
Fri 01:34:00 PM 71.3858 -75.3522 235° Southwest  Level Estimated
Fri 01:35:00 PM 71.3109 -75.6849 235° Southwest  Level Estimated
Fri 01:36:00 PM 71.2355 -76.0150 235° Southwest  Level Estimated
Fri 01:37:00 PM 71.1594 -76.3426 234° Southwest  Level Estimated
Fri 01:38:00 PM 71.0828 -76.6676 234° Southwest  Level Estimated
Fri 01:39:00 PM 71.0057 -76.9901 234° Southwest  Level Estimated
Fri 01:40:00 PM 70.9280 -77.3101 233° Southwest  Level Estimated
Fri 01:41:00 PM 70.8497 -77.6275 233° Southwest  Level Estimated
Fri 01:42:00 PM 70.7709 -77.9425 233° Southwest  Level Estimated
Fri 01:43:00 PM 70.6916 -78.2549 233° Southwest  Level Estimated
Fri 01:44:00 PM 70.6117 -78.5649 232° Southwest  Level Estimated
Fri 01:45:00 PM 70.5313 -78.8725 232° Southwest  Level Estimated
Fri 01:46:00 PM 70.4504 -79.1776 232° Southwest  Level Estimated
Fri 01:47:00 PM 70.3690 -79.4803 231° Southwest  Level Estimated
Fri 01:48:00 PM 70.2871 -79.7806 231° Southwest  Level Estimated
Fri 01:49:00 PM 70.2047 -80.0785 231° Southwest  Level Estimated
Fri 01:50:00 PM 70.1218 -80.3740 231° Southwest  Level Estimated
Fri 01:51:00 PM 70.0384 -80.6671 230° Southwest  Level Estimated
Fri 01:52:00 PM 69.9545 -80.9579 230° Southwest  Level Estimated
Fri 01:53:00 PM 69.8702 -81.2464 230° Southwest  Level Estimated
Fri 01:54:00 PM 69.7854 -81.5325 229° Southwest  Level Estimated
Fri 01:55:00 PM 69.7001 -81.8164 229° Southwest  Level Estimated
Fri 01:56:00 PM 69.6144 -82.0980 229° Southwest  Level Estimated
Fri 01:57:00 PM 69.5283 -82.3773 229° Southwest  Level Estimated
Fri 01:58:00 PM 69.4417 -82.6544 228° Southwest  Level Estimated
Fri 01:59:00 PM 69.3546 -82.9292 228° Southwest  Level Estimated
Fri 02:00:00 PM 69.2672 -83.2018 228° Southwest  Level Estimated
Fri 02:01:00 PM 69.1793 -83.4722 228° Southwest  Level Estimated
Fri 02:02:00 PM 69.0910 -83.7405 227° Southwest  Level Estimated
Fri 02:03:00 PM 69.0022 -84.0066 227° Southwest  Level Estimated
Fri 02:04:00 PM 68.9131 -84.2705 227° Southwest  Level Estimated
Fri 02:05:00 PM 68.8235 -84.5323 227° Southwest  Level Estimated
Fri 02:06:00 PM 68.7336 -84.7921 226° Southwest  Level Estimated
Fri 02:07:00 PM 68.6432 -85.0497 226° Southwest  Level Estimated
Fri 02:08:00 PM 68.5525 -85.3052 226° Southwest  Level Estimated
Fri 02:09:00 PM 68.4614 -85.5587 226° Southwest  Level Estimated
Fri 02:10:00 PM 68.3699 -85.8102 225° Southwest  Level Estimated
Fri 02:11:00 PM 68.2780 -86.0596 225° Southwest  Level Estimated
Fri 02:12:00 PM 68.1858 -86.3070 225° Southwest  Level Estimated
Fri 02:13:00 PM 68.0932 -86.5525 225° Southwest  Level Estimated
Fri 02:14:00 PM 68.0002 -86.7959 225° Southwest  Level Estimated
Fri 02:15:00 PM 67.9069 -87.0375 224° Southwest  Level Estimated
Fri 02:16:00 PM 67.8132 -87.2770 224° Southwest  Level Estimated
Fri 02:17:00 PM 67.7192 -87.5147 224° Southwest  Level Estimated
Fri 02:18:00 PM 67.6248 -87.7505 224° Southwest  Level Estimated
Fri 02:19:00 PM 67.5301 -87.9844 223° Southwest  Level Estimated
Fri 02:20:00 PM 67.4351 -88.2164 223° Southwest  Level Estimated
Fri 02:21:00 PM 67.3397 -88.4465 223° Southwest  Level Estimated
Fri 02:22:00 PM 67.2440 -88.6749 223° Southwest  Level Estimated
Fri 02:23:00 PM 67.1480 -88.9014 223° Southwest  Level Estimated
Fri 02:24:00 PM 67.0517 -89.1262 222° Southwest  Level Estimated
Fri 02:25:00 PM 66.9550 -89.3491 222° Southwest  Level Estimated
Fri 02:26:00 PM 66.8581 -89.5703 222° Southwest  Level Estimated
Fri 02:27:00 PM 66.7608 -89.7897 222° Southwest  Level Estimated
Fri 02:28:00 PM 66.6632 -90.0074 222° Southwest  Level Estimated
Fri 02:29:00 PM 66.5654 -90.2234 221° Southwest  Level Estimated
Fri 02:30:00 PM 66.4672 -90.4377 221° Southwest  Level Estimated
Fri 02:31:00 PM 66.3687 -90.6503 221° Southwest  Level Estimated
Fri 02:32:00 PM 66.2700 -90.8613 221° Southwest  Level Estimated
Fri 02:33:00 PM 66.1710 -91.0706 221° Southwest  Level Estimated
Fri 02:34:00 PM 66.0717 -91.2782 220° Southwest  Level Estimated
Fri 02:35:00 PM 65.9721 -91.4843 220° Southwest  Level Estimated
Fri 02:36:00 PM 65.8723 -91.6887 220° Southwest  Level Estimated
Fri 02:37:00 PM 65.7721 -91.8916 220° Southwest  Level Estimated
Fri 02:38:00 PM 65.6717 -92.0929 220° Southwest  Level Estimated
Fri 02:39:00 PM 65.5711 -92.2926 219° Southwest  Level Estimated
Fri 02:40:00 PM 65.4702 -92.4908 219° Southwest  Level Estimated
Fri 02:41:00 PM 65.3690 -92.6874 219° Southwest  Level Estimated
Fri 02:42:00 PM 65.2676 -92.8826 219° Southwest  Level Estimated
Fri 02:43:00 PM 65.1659 -93.0762 219° Southwest  Level Estimated
Fri 02:44:00 PM 65.0640 -93.2684 219° Southwest  Level Estimated
Fri 02:45:00 PM 64.9618 -93.4591 218° Southwest  Level Estimated
Fri 02:46:00 PM 64.8594 -93.6484 218° Southwest  Level Estimated
Fri 02:47:00 PM 64.7568 -93.8362 218° Southwest  Level Estimated
Fri 02:48:00 PM 64.6539 -94.0226 218° Southwest  Level Estimated
Fri 02:49:00 PM 64.5508 -94.2076 218° Southwest  Level Estimated
Fri 02:50:00 PM 64.4474 -94.3912 217° Southwest  Level Estimated
Fri 02:51:00 PM 64.3438 -94.5734 217° Southwest  Level Estimated
Fri 02:52:00 PM 64.2400 -94.7542 217° Southwest  Level Estimated
Fri 02:53:00 PM 64.1360 -94.9337 217° Southwest  Level Estimated
Fri 02:54:00 PM 64.0318 -95.1118 217° Southwest  Level Estimated
Fri 02:55:00 PM 63.9273 -95.2886 217° Southwest  Level Estimated
Fri 02:56:00 PM 63.8227 -95.4641 217° Southwest  Level Estimated
Fri 02:57:00 PM 63.7178 -95.6383 216° Southwest  Level Estimated
Fri 02:58:00 PM 63.6127 -95.8112 216° Southwest  Level Estimated
Fri 02:59:00 PM 63.5074 -95.9829 216° Southwest  Level Estimated
Fri 03:00:00 PM 63.4019 -96.1533 216° Southwest  Level Estimated
Fri 03:01:00 PM 63.2962 -96.3224 216° Southwest  Level Estimated
Fri 03:02:00 PM 63.1903 -96.4903 216° Southwest  Level Estimated
Fri 03:03:00 PM 63.0842 -96.6570 215° Southwest  Level Estimated
Fri 03:04:00 PM 62.9779 -96.8224 215° Southwest  Level Estimated
Fri 03:05:00 PM 62.8714 -96.9866 215° Southwest  Level Estimated
Fri 03:06:00 PM 62.7647 -97.1497 215° Southwest  Level Estimated
Fri 03:07:00 PM 62.6579 -97.3116 215° Southwest  Level Estimated
Fri 03:08:00 PM 62.5508 -97.4723 215° Southwest  Level Estimated
Fri 03:09:00 PM 62.4436 -97.6319 215° Southwest  Level Estimated
Fri 03:10:00 PM 62.3362 -97.7903 214° Southwest  Level Estimated
Fri 03:11:00 PM 62.2286 -97.9476 214° Southwest  Level Estimated
Fri 03:12:00 PM 62.1208 -98.1038 214° Southwest  Level Estimated
Fri 03:13:00 PM 62.0129 -98.2589 214° Southwest  Level Estimated
Fri 03:14:00 PM 61.9048 -98.4128 214° Southwest  Level Estimated
Fri 03:15:00 PM 61.7965 -98.5657 214° Southwest  Level Estimated
Fri 03:16:00 PM 61.6881 -98.7176 214° Southwest  Level Estimated
Fri 03:17:00 PM 61.5794 -98.8683 213° Southwest  Level Estimated
Fri 03:18:00 PM 61.4707 -99.0180 213° Southwest  Level Estimated
Fri 03:19:00 PM 61.3617 -99.1667 213° Southwest  Level Estimated
Fri 03:20:00 PM 61.2526 -99.3143 213° Southwest  Level Estimated
Fri 03:21:00 PM 61.1433 -99.4609 213° Southwest  Level Estimated
Fri 03:22:00 PM 61.0339 -99.6065 213° Southwest  Level Estimated
Fri 03:23:00 PM 60.9243 -99.7511 213° Southwest  Level Estimated
Fri 03:24:00 PM 60.8146 -99.8947 213° Southwest  Level Estimated
Fri 03:25:00 PM 60.7047 -100.0373 212° Southwest  Level Estimated
Fri 03:26:00 PM 60.5947 -100.1789 212° Southwest  Level Estimated
Fri 03:26:47 PM 61.5667 -101.6333 212° Southwest 460 529 34,000  Level Edmonton Center
Fri 03:27:00 PM 60.4845 -100.3196 212° Southwest  Level Estimated
Fri 03:27:47 PM 61.4500 -101.7167 199° South 460 529 35,200  Level Edmonton Center
Fri 03:28:00 PM 60.3742 -100.4593 212° Southwest  Level Estimated
Fri 03:28:47 PM 61.3167 -101.8167 200° South 470 541 36,000  Level Edmonton Center
Fri 03:29:00 PM 60.2637 -100.5981 212° Southwest  Level Estimated
Fri 03:29:47 PM 61.1833 -101.8500 187° South 470 541 36,000  Level Edmonton Center
Fri 03:30:00 PM 60.1531 -100.7359 212° Southwest  Level Estimated
Fri 03:30:47 PM 61.0667 -101.9333 199° South 470 541 36,000  Level Edmonton Center
Fri 03:31:00 PM 60.0423 -100.8729 212° Southwest  Level Estimated
Fri 03:31:47 PM 60.9500 -102.0167 199° South 470 541 36,000  Level Edmonton Center
Fri 03:32:00 PM 59.9314 -101.0089 212° Southwest  Level Estimated
Fri 03:32:47 PM 60.8167 -102.1000 197° South 460 529 36,000  Level Edmonton Center
Fri 03:33:47 PM 60.6833 -102.1833 197° South 460 529 36,000  Level Edmonton Center
Fri 03:34:47 PM 60.5500 -102.2667 197° South 470 541 36,000  Level Edmonton Center
Fri 03:35:47 PM 60.4167 -102.3167 190° South 460 529 36,000  Level Edmonton Center
Fri 03:36:47 PM 60.3000 -102.3833 196° South 460 529 36,000  Level Edmonton Center
Fri 03:37:47 PM 60.1833 -102.4667 200° South 460 529 36,000  Level Edmonton Center
Fri 03:38:47 PM 60.0500 -102.5500 197° South 460 529 36,000  Level Edmonton Center
Fri 03:39:47 PM 59.9333 -102.6167 196° South 450 518 36,000  Level Edmonton Center
Fri 03:40:47 PM 59.8167 -102.6667 192° South 450 518 36,000  Level Edmonton Center
Fri 03:41:47 PM 59.6833 -102.7333 194° South 450 518 36,000  Level Edmonton Center
Fri 03:42:47 PM 59.5667 -102.8167 200° South 450 518 36,000  Level Edmonton Center
Fri 03:43:47 PM 59.4333 -102.8833 194° South 450 518 36,000  Level Edmonton Center
Fri 03:44:47 PM 59.3167 -102.9333 192° South 450 518 36,000  Level Edmonton Center
Fri 03:45:47 PM 59.2000 -103.0000 196° South 450 518 36,000  Level Edmonton Center
Fri 03:46:47 PM 59.0667 -103.0833 198° South 450 518 36,000  Level Edmonton Center
Fri 03:47:47 PM 58.9500 -103.1500 196° South 450 518 36,000  Level Edmonton Center
Fri 03:48:47 PM 58.8333 -103.2167 196° South 450 518 36,000  Level Edmonton Center
Fri 03:49:47 PM 58.7000 -103.2667 191° South 450 518 36,000  Level Edmonton Center
Fri 03:50:47 PM 58.5667 -103.3333 195° South 450 518 36,000  Level Edmonton Center
Fri 03:51:47 PM 58.4500 -103.4000 197° South 450 518 36,000  Level Edmonton Center
Fri 03:52:47 PM 58.3333 -103.4667 197° South 450 518 36,000  Level Edmonton Center
Fri 03:53:47 PM 58.2167 -103.5167 193° South 450 518 36,000  Level Edmonton Center
Fri 03:54:47 PM 58.0833 -103.5833 195° South 450 518 36,000  Level Edmonton Center
Fri 03:55:23 PM 58.0167 -103.6500 208° Southwest 460 529 36,000  Level Winnipeg Center
Fri 03:56:23 PM 57.9000 -103.7333 201° Southwest 450 518 36,000  Level Winnipeg Center
Fri 03:57:23 PM 57.7833 -103.7667 189° South 460 529 36,000  Level Winnipeg Center
Fri 03:58:23 PM 57.6667 -103.8500 201° Southwest 460 529 36,000  Level Winnipeg Center
Fri 03:59:23 PM 57.5333 -103.9167 195° South 460 529 36,000  Level Winnipeg Center
Fri 04:00:23 PM 57.4000 -103.9833 195° South 460 529 36,000  Level Winnipeg Center
Fri 04:01:23 PM 57.2833 -104.0167 189° South 460 529 36,000  Level Winnipeg Center
Fri 04:02:23 PM 57.1667 -104.1000 201° Southwest 460 529 36,000  Level Winnipeg Center
Fri 04:03:23 PM 57.0500 -104.1333 189° South 460 529 36,000  Level Winnipeg Center
Fri 04:04:23 PM 56.9167 -104.2333 202° Southwest 450 518 36,000  Level Winnipeg Center
Fri 04:05:23 PM 56.8167 -104.3000 200° South 450 518 36,000  Level Winnipeg Center
Fri 04:06:23 PM 56.6833 -104.3667 195° South 450 518 36,000  Level Winnipeg Center
Fri 04:07:23 PM 56.5667 -104.4333 197° South 450 518 36,000  Level Winnipeg Center
Fri 04:08:23 PM 56.4500 -104.5167 202° Southwest 450 518 36,000  Level Winnipeg Center
Fri 04:09:23 PM 56.3333 -104.5833 198° South 450 518 36,000  Level Winnipeg Center
Fri 04:10:23 PM 56.2000 -104.6500 196° South 450 518 36,000  Level Winnipeg Center
Fri 04:11:23 PM 56.0833 -104.7333 202° Southwest 450 518 36,000  Level Winnipeg Center
Fri 04:12:23 PM 55.9833 -104.8167 205° Southwest 450 518 36,000  Level Winnipeg Center
Fri 04:13:23 PM 55.8500 -104.8667 192° South 450 518 36,000  Level Winnipeg Center
Fri 04:14:23 PM 55.7333 -104.9333 198° South 450 518 36,000  Level Winnipeg Center
Fri 04:15:23 PM 55.6333 -105.0000 201° Southwest 450 518 36,000  Level Winnipeg Center
Fri 04:16:23 PM 55.5000 -105.0667 196° South 450 518 36,000  Level Winnipeg Center
Fri 04:17:23 PM 55.3833 -105.1333 198° South 450 518 36,000  Level Winnipeg Center
Fri 04:18:23 PM 55.2667 -105.2333 206° Southwest 450 518 36,000  Level Winnipeg Center
Fri 04:19:23 PM 55.1333 -105.3000 196° South 450 518 36,000  Level Winnipeg Center
Fri 04:20:23 PM 55.0167 -105.3500 194° South 450 518 36,000  Level Winnipeg Center
Fri 04:21:23 PM 54.9000 -105.4167 198° South 450 518 36,000  Level Winnipeg Center
Fri 04:22:23 PM 54.7833 -105.4833 198° South 450 518 36,000  Level Winnipeg Center
Fri 04:23:23 PM 54.6667 -105.5500 198° South 450 518 36,000  Level Winnipeg Center
Fri 04:24:23 PM 54.5500 -105.6000 194° South 450 518 36,000  Level Winnipeg Center
Fri 04:25:23 PM 54.4167 -105.6667 196° South 450 518 36,000  Level Winnipeg Center
Fri 04:26:23 PM 54.3000 -105.7333 198° South 450 518 36,000  Level Winnipeg Center
Fri 04:27:23 PM 54.2000 -105.8000 201° Southwest 450 518 36,000  Level Winnipeg Center
Fri 04:28:23 PM 54.0667 -105.8500 192° South 450 518 36,000  Level Winnipeg Center
Fri 04:29:23 PM 53.9500 -105.9333 203° Southwest 450 518 36,000  Level Winnipeg Center
Fri 04:30:23 PM 53.8333 -106.0000 199° South 450 518 36,000  Level Winnipeg Center
Fri 04:31:23 PM 53.7000 -106.0667 196° South 460 529 36,000  Level Winnipeg Center
Fri 04:32:23 PM 53.5833 -106.1167 194° South 450 518 36,000  Level Winnipeg Center
Fri 04:33:23 PM 53.4667 -106.1833 199° South 450 518 36,000  Level Winnipeg Center
Fri 04:34:23 PM 53.3500 -106.2333 194° South 450 518 36,000  Level Winnipeg Center
Fri 04:35:23 PM 53.2167 -106.3167 201° Southwest 450 518 36,000  Level Winnipeg Center
Fri 04:36:23 PM 53.1000 -106.3833 199° South 450 518 36,000  Level Winnipeg Center
Fri 04:37:23 PM 52.9833 -106.4333 194° South 450 518 36,000  Level Winnipeg Center
Fri 04:38:23 PM 52.8667 -106.5000 199° South 450 518 36,000  Level Winnipeg Center
Fri 04:39:23 PM 52.7333 -106.5500 193° South 450 518 36,000  Level Winnipeg Center
Fri 04:40:23 PM 52.6167 -106.6167 199° South 450 518 36,000  Level Winnipeg Center
Fri 04:41:23 PM 52.5167 -106.6667 197° South 450 518 36,000  Level Winnipeg Center
Fri 04:42:23 PM 52.3833 -106.7167 193° South 450 518 36,000  Level Winnipeg Center
Fri 04:43:23 PM 52.2667 -106.7833 199° South 450 518 36,000  Level Winnipeg Center
Fri 04:44:23 PM 52.1500 -106.8667 204° Southwest 450 518 36,000  Level Winnipeg Center
Fri 04:45:23 PM 52.0167 -106.9167 193° South 450 518 36,000  Level Winnipeg Center
Fri 04:46:23 PM 51.9000 -106.9667 195° South 450 518 36,000  Level Winnipeg Center
Fri 04:47:23 PM 51.7833 -107.0333 199° South 450 518 36,000  Level Winnipeg Center
Fri 04:53:02 PM 51.1370 -107.3070 199° South 450 518 36,000  Level FlightAware ADS-B
Fri 04:53:42 PM 51.0690 -107.3380 196° South 450 518 36,000  Level FlightAware ADS-B
Fri 04:54:22 PM 51.0010 -107.3690 196° South 450 518 36,000  Level FlightAware ADS-B
Fri 04:55:02 PM 50.9330 -107.4000 196° South 450 518 36,000  Level FlightAware ADS-B
Fri 04:55:42 PM 50.8650 -107.4310 196° South 450 518 36,000  Level FlightAware ADS-B
Fri 04:56:32 PM 50.7800 -107.4700 196° South 450 518 36,000  Level FlightAware ADS-B
Fri 04:57:12 PM 50.7120 -107.5010 196° South 450 518 36,000  Level FlightAware ADS-B
Fri 04:57:52 PM 50.6440 -107.5310 196° South 450 518 36,000  Level FlightAware ADS-B
Fri 04:58:32 PM 50.5760 -107.5620 196° South 450 518 36,000  Level FlightAware ADS-B
Fri 04:59:12 PM 50.5080 -107.5930 196° South 450 518 36,000  Level FlightAware ADS-B
Fri 04:59:52 PM 50.4400 -107.6230 196° South 450 518 36,000  Level FlightAware ADS-B
Fri 05:00:42 PM 50.3550 -107.6620 196° South 450 518 36,000  Level FlightAware ADS-B
Fri 05:01:22 PM 50.2870 -107.6920 196° South 450 518 36,000  Level FlightAware ADS-B
Fri 05:02:02 PM 50.2190 -107.7230 196° South 450 518 36,000  Level FlightAware ADS-B
Fri 05:02:34 PM 49.9825 -107.8667 196° South 461 531 36,000  Level Salt Lake Center
Fri 05:03:36 PM 49.8581 -107.9258 197° South 464 534 36,000  Level Salt Lake Center
Fri 05:04:23 PM 49.7167 -108.0167 203° Southwest 460 529 36,000  Level Winnipeg Center
Fri 05:05:23 PM 49.5833 -108.0833 198° South 470 541 36,000  Level Winnipeg Center
Fri 05:06:23 PM 49.4833 -108.1500 203° Southwest 460 529 36,000  Level Winnipeg Center
Fri 05:06:47 PM 49.4167 -108.1500 180° South 450 518 36,000  Level Edmonton Center
Fri 05:07:23 PM 49.3500 -108.2167 213° Southwest 460 529 36,000  Level Winnipeg Center
Fri 05:08:23 PM 49.2333 -108.2667 196° South 460 529 36,000  Level Winnipeg Center
Fri 05:09:46 PM 49.1006 -108.3083 192° South 460 529 36,000  Level Salt Lake Center
Fri 05:10:23 PM 48.9833 -108.3833 203° Southwest 450 518 36,000  Level Winnipeg Center
Fri 05:10:48 PM 48.9792 -108.3686 113° Southeast 459 528 36,000  Level Salt Lake Center
Fri 05:11:23 PM 48.8833 -108.4333 204° Southwest 460 529 36,000  Level Winnipeg Center
Fri 05:11:50 PM 48.8336 -108.4414 186° South 460 529 36,000  Level Salt Lake Center
Fri 05:12:51 PM 48.7117 -108.5025 198° South 461 531 36,000  Level Salt Lake Center
Fri 05:13:53 PM 48.5892 -108.5611 198° South 462 532 36,000  Level Salt Lake Center
Fri 05:14:55 PM 48.4678 -108.6219 198° South 461 531 36,000  Level Salt Lake Center
Fri 05:15:57 PM 48.3464 -108.6806 198° South 459 528 36,000  Level Salt Lake Center
Fri 05:16:58 PM 48.2250 -108.7389 198° South 459 528 36,000  Level Salt Lake Center
Fri 05:18:00 PM 48.1042 -108.7978 198° South 458 527 36,000  Level Salt Lake Center
Fri 05:19:02 PM 47.9600 -108.8689 198° South 458 527 36,000  Level Salt Lake Center
Fri 05:20:04 PM 47.8389 -108.9275 198° South 459 528 36,000  Level Salt Lake Center
Fri 05:21:06 PM 47.7158 -108.9856 198° South 462 532 36,000  Level Salt Lake Center
Fri 05:22:08 PM 47.5939 -109.0436 198° South 461 531 36,000  Level Salt Lake Center
Fri 05:23:10 PM 47.4706 -109.1014 198° South 462 532 36,000 194 Level Salt Lake Center
Fri 05:24:12 PM 47.3464 -109.1589 197° South 465 535 36,400 919 Climbing Salt Lake Center
Fri 05:25:14 PM 47.2211 -109.2111 196° South 467 537 37,900 774 Climbing Salt Lake Center
Fri 05:26:16 PM 47.0739 -109.2728 196° South 460 529 38,000 48 Climbing Salt Lake Center
Fri 05:27:18 PM 46.9492 -109.3258 196° South 464 534 38,000  Level Salt Lake Center
Fri 05:28:20 PM 46.8239 -109.3775 196° South 467 537 38,000  Level Salt Lake Center
Fri 05:29:22 PM 46.6914 -109.4300 195° South 465 535 38,000  Level Salt Lake Center
Fri 05:30:24 PM 46.5678 -109.4867 197° South 477 549 38,000  Level Salt Lake Center
Fri 05:31:26 PM 46.4275 -109.5414 195° South 470 541 38,000  Level Salt Lake Center
Fri 05:32:28 PM 46.3072 -109.5894 195° South 469 540 38,000  Level Salt Lake Center
Fri 05:33:30 PM 46.1658 -109.6464 196° South 474 545 38,000  Level Salt Lake Center
Fri 05:34:32 PM 46.0428 -109.6967 196° South 478 550 38,000  Level Salt Lake Center
Fri 05:35:36 PM 45.8997 -109.7564 196° South 480 552 38,000  Level Salt Lake Center
Fri 05:36:36 PM 45.7775 -109.8044 195° South 478 550 38,000  Level Salt Lake Center
Fri 05:37:38 PM 45.6342 -109.8617 196° South 480 552 38,000  Level Salt Lake Center
Fri 05:38:40 PM 45.5125 -109.9100 196° South 476 548 38,000  Level Salt Lake Center
Fri 05:39:42 PM 45.3686 -109.9667 195° South 480 552 38,000  Level Salt Lake Center
Fri 05:40:44 PM 45.2456 -110.0153 196° South 481 554 38,000  Level Salt Lake Center
Fri 05:41:46 PM 45.1028 -110.0706 195° South 482 555 38,000  Level Salt Lake Center
Fri 05:42:48 PM 44.9786 -110.1181 195° South 483 556 38,000  Level Salt Lake Center
Fri 05:43:50 PM 44.8328 -110.1742 195° South 484 557 38,000  Level Salt Lake Center
Fri 05:44:52 PM 44.7083 -110.2219 195° South 484 557 38,000  Level Salt Lake Center
Fri 05:45:54 PM 44.5628 -110.2789 196° South 484 557 38,000  Level Salt Lake Center
Fri 05:46:56 PM 44.4375 -110.3253 195° South 484 557 38,000  Level Salt Lake Center
Fri 05:47:58 PM 44.3128 -110.3728 195° South 483 556 38,000  Level Salt Lake Center
Fri 05:49:00 PM 44.1675 -110.4297 196° South 484 557 38,000  Level Salt Lake Center
Fri 05:50:02 PM 44.0414 -110.4758 195° South 486 559 38,000  Level Salt Lake Center
Fri 05:51:04 PM 43.8931 -110.5311 195° South 492 566 38,000  Level Salt Lake Center
Fri 05:52:06 PM 43.7689 -110.5889 199° South 492 566 38,000  Level Salt Lake Center
Fri 05:53:08 PM 43.6256 -110.6606 200° South 490 564 38,000  Level Salt Lake Center
Fri 05:54:10 PM 43.5017 -110.7269 201° Southwest 495 570 38,000  Level Salt Lake Center
Fri 05:55:12 PM 43.3589 -110.8028 201° Southwest 493 567 38,000  Level Salt Lake Center
Fri 06:01:07 PM 42.6150 -111.1820 201° Southwest 484 557 38,000  Level FlightAware ADS-B
Fri 06:01:52 PM 42.5150 -111.2320 200° South 485 558 38,000  Level FlightAware ADS-B
Fri 06:02:32 PM 42.4260 -111.2770 200° South 493 567 38,000  Level FlightAware ADS-B
Fri 06:03:17 PM 42.3330 -111.3230 200° South 494 568 38,000  Level FlightAware ADS-B
Fri 06:03:57 PM 42.2460 -111.3670 201° Southwest 496 571 38,000  Level FlightAware ADS-B
Fri 06:04:37 PM 42.1620 -111.4090 200° South 496 571 38,000  Level FlightAware ADS-B
Fri 06:05:17 PM 42.0770 -111.4510 200° South 497 572 38,000  Level FlightAware ADS-B
Fri 06:06:02 PM 41.9750 -111.5010 200° South 497 572 38,000  Level FlightAware ADS-B
Fri 06:06:47 PM 41.8760 -111.5500 200° South 497 572 38,000  Level FlightAware ADS-B
Fri 06:07:27 PM 41.7890 -111.5930 200° South 497 572 38,000  Level FlightAware ADS-B
Fri 06:08:07 PM 41.7040 -111.6340 200° South 497 572 38,000  Level FlightAware ADS-B
Fri 06:08:52 PM 41.6050 -111.6830 200° South 498 573 38,000  Level FlightAware ADS-B
Fri 06:09:32 PM 41.5180 -111.7250 200° South 499 574 38,000  Level FlightAware ADS-B
Fri 06:10:17 PM 41.4210 -111.7720 200° South 499 574 38,000  Level FlightAware ADS-B
Fri 06:10:57 PM 41.3350 -111.8130 200° South 500 575 38,000  Level FlightAware ADS-B
Fri 06:13:47 PM 40.9700 -111.9880 200° South 497 572 38,000  Level FlightAware ADS-B
Fri 06:14:27 PM 40.8820 -112.0310 200° South 497 572 38,000  Level FlightAware ADS-B
Fri 06:15:07 PM 40.7950 -112.0720 200° South 498 573 38,000  Level FlightAware ADS-B
Fri 06:15:52 PM 40.6990 -112.1180 200° South 499 574 38,000  Level FlightAware ADS-B
Fri 06:16:32 PM 40.6110 -112.1590 199° South 492 566 38,000  Level FlightAware ADS-B
Fri 06:17:12 PM 40.5240 -112.2000 200° South 493 567 38,000  Level FlightAware ADS-B
Fri 06:17:57 PM 40.4260 -112.2460 200° South 496 571 38,000  Level FlightAware ADS-B
Fri 06:18:42 PM 40.3260 -112.2930 200° South 494 568 38,000  Level FlightAware ADS-B
Fri 06:19:22 PM 40.2370 -112.3340 199° South 493 567 38,000  Level FlightAware ADS-B
Fri 06:20:02 PM 40.1510 -112.3740 200° South 493 567 38,000  Level FlightAware ADS-B
Fri 06:20:42 PM 40.0690 -112.4130 200° South 493 567 38,000  Level FlightAware ADS-B
Fri 06:21:22 PM 39.9740 -112.4570 200° South 494 568 38,000  Level FlightAware ADS-B
Fri 06:22:07 PM 39.8740 -112.5020 199° South 494 568 38,000  Level FlightAware ADS-B
Fri 06:22:47 PM 39.8000 -112.5360 199° South 494 568 38,000  Level FlightAware ADS-B
Fri 06:23:27 PM 39.7260 -112.5690 199° South 494 568 38,000  Level FlightAware ADS-B
Fri 06:24:07 PM 39.6530 -112.6020 199° South 494 568 38,000  Level FlightAware ADS-B
Fri 06:24:57 PM 39.5610 -112.6430 199° South 494 568 38,000  Level FlightAware ADS-B
Fri 06:25:37 PM 39.4870 -112.6760 199° South 494 568 38,000  Level FlightAware ADS-B
Fri 06:26:17 PM 39.4140 -112.7090 199° South 494 568 38,000  Level FlightAware ADS-B
Fri 06:26:57 PM 39.3400 -112.7410 198° South 494 568 38,000  Level FlightAware ADS-B
Fri 06:27:47 PM 39.2490 -112.7820 199° South 494 568 38,000  Level FlightAware ADS-B
Fri 06:28:27 PM 39.1750 -112.8150 199° South 494 568 38,000  Level FlightAware ADS-B
Fri 06:29:07 PM 39.1020 -112.8470 199° South 494 568 38,000  Level FlightAware ADS-B
Fri 06:29:47 PM 39.0280 -112.8800 199° South 494 568 38,000  Level FlightAware ADS-B
Fri 06:30:27 PM 38.9550 -112.9130 199° South 494 568 38,000  Level FlightAware ADS-B
Fri 06:31:17 PM 38.8630 -112.9530 199° South 494 568 38,000  Level FlightAware ADS-B
Fri 06:31:57 PM 38.7890 -112.9860 199° South 494 568 38,000  Level FlightAware ADS-B
Fri 06:32:22 PM 38.5522 -113.0981 199° South 488 562 38,000  Level Salt Lake Center
Fri 06:33:24 PM 38.4239 -113.1561 200° South 490 564 38,000  Level Salt Lake Center
Fri 06:34:26 PM 38.2961 -113.2122 199° South 490 564 38,000  Level Salt Lake Center
Fri 06:40:22 PM 37.5560 -113.6590 199° South 479 551 38,000  Level FlightAware ADS-B
Fri 06:41:02 PM 37.4850 -113.7160 213° Southwest 479 551 38,000  Level FlightAware ADS-B
Fri 06:41:47 PM 37.3980 -113.7840 212° Southwest 480 552 38,000  Level FlightAware ADS-B
Fri 06:42:17 PM 37.3440 -113.8270 212° Southwest 480 552 38,000  Level FlightAware ADS-B
Fri 06:43:07 PM 37.2470 -113.9020 212° Southwest 480 552 38,000  Level FlightAware ADS-B
Fri 06:43:52 PM 37.1610 -113.9700 212° Southwest 480 552 38,000  Level FlightAware ADS-B
Fri 06:44:32 PM 37.0850 -114.0290 212° Southwest 482 555 38,000  Level FlightAware ADS-B
Fri 06:45:17 PM 37.0030 -114.0930 212° Southwest 483 556 38,000  Level FlightAware ADS-B
Fri 06:45:57 PM 36.9270 -114.1520 212° Southwest 482 555 38,000  Level FlightAware ADS-B
Fri 06:46:37 PM 36.8510 -114.2100 211° Southwest 481 554 38,000  Level FlightAware ADS-B
Fri 06:47:22 PM 36.7620 -114.2790 212° Southwest 485 558 38,000  Level FlightAware ADS-B
Fri 06:48:02 PM 36.6850 -114.3390 212° Southwest 485 558 38,000  Level FlightAware ADS-B
Fri 06:48:47 PM 36.6020 -114.4020 211° Southwest 485 558 38,000  Level FlightAware ADS-B
Fri 06:49:27 PM 36.5250 -114.4620 212° Southwest 485 558 38,000  Level FlightAware ADS-B
Fri 06:50:07 PM 36.4490 -114.5200 212° Southwest 485 558 38,000  Level FlightAware ADS-B
Fri 06:50:52 PM 36.3610 -114.5870 212° Southwest 483 556 38,000  Level FlightAware ADS-B
Fri 06:51:32 PM 36.2850 -114.6450 212° Southwest 480 552 38,000  Level FlightAware ADS-B
Fri 06:52:12 PM 36.2100 -114.7010 211° Southwest 480 552 38,000  Level FlightAware ADS-B
Fri 06:52:57 PM 36.1260 -114.7650 212° Southwest 479 551 38,000  Level FlightAware ADS-B
Fri 06:53:37 PM 36.0500 -114.8230 212° Southwest 480 552 38,000  Level FlightAware ADS-B
Fri 06:54:22 PM 35.9720 -114.8980 218° Southwest 467 537 38,000  Level FlightAware ADS-B
Fri 06:55:02 PM 35.9140 -114.9750 227° Southwest 463 533 38,000  Level FlightAware ADS-B
Fri 06:55:42 PM 35.8560 -115.0540 228° Southwest 463 533 38,000  Level FlightAware ADS-B
Fri 06:56:27 PM 35.7930 -115.1400 228° Southwest 465 535 38,000  Level FlightAware ADS-B
Fri 06:57:07 PM 35.7310 -115.2150 224° Southwest 468 539 38,000  Level FlightAware ADS-B
Fri 06:57:47 PM 35.6680 -115.2880 223° Southwest 468 539 38,000  Level FlightAware ADS-B
Fri 06:58:32 PM 35.5960 -115.3740 224° Southwest 467 537 38,000  Level FlightAware ADS-B
Fri 06:59:12 PM 35.5390 -115.4430 225° Southwest 467 537 38,000  Level FlightAware ADS-B
Fri 06:59:57 PM 35.4670 -115.5300 225° Southwest 465 535 38,000  Level FlightAware ADS-B
Fri 07:00:37 PM 35.4050 -115.6030 224° Southwest 461 531 38,000  Level FlightAware ADS-B
Fri 07:01:22 PM 35.3360 -115.6850 224° Southwest 460 529 38,000  Level FlightAware ADS-B
Fri 07:02:02 PM 35.2750 -115.7570 224° Southwest 460 529 38,000  Level FlightAware ADS-B
Fri 07:02:42 PM 35.2130 -115.8300 224° Southwest 461 531 38,000  Level FlightAware ADS-B
Fri 07:03:27 PM 35.1450 -115.9110 224° Southwest 465 535 38,000  Level FlightAware ADS-B
Fri 07:04:07 PM 35.0870 -115.9790 224° Southwest 465 535 38,000  Level FlightAware ADS-B
Fri 07:04:47 PM 35.0350 -116.0410 224° Southwest 465 535 38,000  Level FlightAware ADS-B
Fri 07:05:27 PM 34.9820 -116.1030 224° Southwest 465 535 38,000 -2,329 Level FlightAware ADS-B
Fri 07:06:12 PM 34.8890 -116.2120 224° Southwest 480 552 34,700 -2,400 Descending FlightAware ADS-B
Fri 07:07:07 PM 34.8040 -116.3090 223° Southwest 484 557 34,000 -442 Descending FlightAware ADS-B
Fri 07:07:47 PM 34.7480 -116.3720 223° Southwest 484 557 34,000 -1,412 Level FlightAware ADS-B
Fri 07:08:32 PM 34.6710 -116.4630 224° Southwest 472 543 32,000 -4,235 Descending FlightAware ADS-B
Fri 07:09:12 PM 34.6010 -116.5450 224° Southwest 477 549 28,000 -3,388 Descending FlightAware ADS-B
Fri 07:09:57 PM 34.5330 -116.6220 223° Southwest 473 544 27,200 -2,025 Descending FlightAware ADS-B
Fri 07:10:32 PM 34.4740 -116.6910 224° Southwest 456 525 25,300 -2,612 Descending FlightAware ADS-B
Fri 07:11:22 PM 34.4000 -116.7760 223° Southwest 444 511 23,500 -2,200 Descending FlightAware ADS-B
Fri 07:12:02 PM 34.3410 -116.8430 223° Southwest 435 501 22,000 -2,471 Descending FlightAware ADS-B
Fri 07:12:47 PM 34.2740 -116.9190 223° Southwest 432 497 20,000 -2,259 Descending FlightAware ADS-B
Fri 07:13:27 PM 34.2150 -116.9870 224° Southwest 421 484 18,800 -1,412 Descending FlightAware ADS-B
Fri 07:14:12 PM 34.1540 -117.0560 223° Southwest 408 470 18,000 -565 Descending FlightAware ADS-B
Fri 07:14:52 PM 34.1050 -117.1200 227° Southwest 374 430 18,000  Level FlightAware ADS-B
Fri 07:15:32 PM 34.0700 -117.1930 240° Southwest 370 426 18,000  Level FlightAware ADS-B
Fri 07:16:17 PM 34.0450 -117.2780 250° West 365 420 18,000 -706 Level FlightAware ADS-B
Fri 07:16:57 PM 34.0370 -117.3580 263° West 354 407 17,000 -3,388 Descending FlightAware ADS-B
Fri 07:17:42 PM 34.0300 -117.4470 265° West 367 422 13,200 -3,671 Descending FlightAware ADS-B
Fri 07:18:22 PM 34.0320 -117.5250 272° West 339 390 11,800 -1,425 Descending FlightAware ADS-B
Fri 07:19:02 PM 34.0310 -117.6020 269° West 323 372 11,300 -1,341 Descending FlightAware ADS-B
Fri 07:19:47 PM 34.0240 -117.6760 264° West 304 350 9,900 -1,371 Descending FlightAware ADS-B
Fri 07:20:12 PM 34.0200 -117.7200 264° West 302 348 9,700 -982 Descending FlightAware ADS-B
Fri 07:20:42 PM 34.0150 -117.7680 263° West 281 323 9,000 -1,200 Descending FlightAware ADS-B
Fri 07:21:12 PM 34.0110 -117.8130 264° West 262 302 8,500 -982 Descending FlightAware ADS-B
Fri 07:21:37 PM 34.0070 -117.8480 262° West 260 299 8,100 -1,050 Descending FlightAware ADS-B
Fri 07:21:52 PM 34.0050 -117.8720 264° West 257 296 7,800 -1,050 Descending FlightAware ADS-B
Fri 07:22:17 PM 34.0020 -117.9050 264° West 256 295 7,400 -1,091 Descending FlightAware ADS-B
Fri 07:22:47 PM 33.9980 -117.9480 264° West 256 295 6,800 -1,400 Descending FlightAware ADS-B
Fri 07:23:17 PM 33.9940 -117.9910 264° West 255 293 6,000 -1,636 Descending FlightAware ADS-B
Fri 07:23:42 PM 33.9900 -118.0270 262° West 249 287 5,300 -1,418 Descending FlightAware ADS-B
Fri 07:24:12 PM 33.9860 -118.0660 263° West 243 280 4,700 -1,200 Descending FlightAware ADS-B
Fri 07:24:42 PM 33.9820 -118.1080 263° West 243 280 4,100 -982 Descending FlightAware ADS-B
Fri 07:25:07 PM 33.9790 -118.1400 264° West 243 280 3,800 -655 Descending FlightAware ADS-B
Fri 07:25:37 PM 33.9750 -118.1790 263° West 236 272 3,500 -873 Descending FlightAware ADS-B
Fri 07:26:02 PM 33.9710 -118.2120 262° West 213 245 3,000 -1,029 Descending FlightAware ADS-B
Fri 07:26:47 PM 33.9670 -118.2600 264° West 191 220 2,300 -975 Descending FlightAware ADS-B
Fri 07:27:22 PM 33.9630 -118.2970 263° West 179 206 1,700 -1,000 Descending FlightAware ADS-B
Fri 07:27:47 PM 33.9610 -118.3180 263° West 163 188 1,300 -554 Descending FlightAware ADS-B
Fri 07:28:27 PM 33.9580 -118.3490 263° West 143 165 1,100 -485 Descending FlightAware ADS-B
Fri 07:29:27 PM 33.9540 -118.3880 263° West 200 -563 Descending FlightAware ADS-B
Fri 07:30:03 PM 33.9511 -118.4119 263° West 144 166 200  Level Los Angeles Center
Fri 07:32:00 PM 33.9425 -118.4081 180° South  Level Estimated

Login

Don't have an account? Register now (free) for customized features, flight alerts, and more!